Time;durP1;ratioP1;P1;durP2;ratioP2;P2;SDS_P1;SDS_P2;PMS_P1;PMS_P2;Temp;Humidity;BMP_temperature;BMP_pressure;BME280_temperature;BME280_humidity;BME280_pressure;Samples;Min_cycle;Max_cycle;Signal;HPM_P1;HPM_P2
2021/12/21 00:01:16;;;;;;;20.83;5.60;;;;;;;10.42;53.88;101561.09;4823825;29;20035;-89
2021/12/21 00:03:41;;;;;;;12.30;2.45;;;;;;;10.38;54.48;101551.66;4824173;29;20060;-89
2021/12/21 00:06:07;;;;;;;11.40;2.85;;;;;;;10.57;53.95;101555.09;4823528;29;20031;-89
2021/12/21 00:08:32;;;;;;;20.52;3.70;;;;;;;10.56;53.41;101555.16;4823672;29;20547;-89
2021/12/21 00:10:59;;;;;;;17.27;3.55;;;;;;;10.47;53.75;101553.84;4835657;29;20287;-89
2021/12/21 00:23:49;;;;;;;19.90;4.30;;;;;;;10.53;53.74;101529.91;4841786;29;20137;-89
2021/12/21 00:26:19;;;;;;;21.48;4.78;;;;;;;10.58;53.81;101533.13;4826085;29;20030;-89
2021/12/21 00:28:59;;;;;;;15.05;3.83;;;;;;;10.59;53.30;101523.50;4823692;29;20030;-88
2021/12/21 00:31:27;;;;;;;20.33;3.50;;;;;;;10.52;53.56;101523.81;4823779;29;20109;-88
2021/12/21 00:33:53;;;;;;;21.38;4.07;;;;;;;10.45;54.14;101516.31;4823699;29;20036;-89
2021/12/21 00:36:21;;;;;;;18.60;2.95;;;;;;;10.61;53.65;101514.59;4822807;29;20117;-89
2021/12/21 00:38:48;;;;;;;26.17;3.47;;;;;;;10.59;53.73;101513.84;4824127;29;20031;-89
2021/12/21 00:41:14;;;;;;;18.73;3.00;;;;;;;10.56;53.82;101513.13;4824828;29;20053;-89
2021/12/21 00:43:40;;;;;;;21.10;3.28;;;;;;;10.41;54.19;101509.50;4823975;29;20025;-88
2021/12/21 00:46:06;;;;;;;16.42;3.30;;;;;;;10.37;54.22;101511.44;4823682;29;20529;-88
2021/12/21 00:48:33;;;;;;;18.98;2.92;;;;;;;10.24;54.63;101511.16;4823751;29;20031;-88
2021/12/21 00:51:01;;;;;;;17.98;3.08;;;;;;;10.28;54.33;101509.22;4822846;29;20037;-89
2021/12/21 00:53:28;;;;;;;21.33;3.88;;;;;;;10.43;54.33;101508.50;4823516;29;20122;-89
2021/12/21 00:55:53;;;;;;;15.10;3.05;;;;;;;10.36;53.96;101508.88;4823108;29;20034;-90
2021/12/21 00:58:19;;;;;;;21.45;4.25;;;;;;;10.20;54.61;101514.84;4836972;29;20401;-89
2021/12/21 01:00:44;;;;;;;18.77;3.92;;;;;;;10.43;54.25;101502.41;4823359;29;20026;-89
2021/12/21 01:03:12;;;;;;;14.80;3.65;;;;;;;10.58;53.74;101504.25;4822013;29;20358;-89
2021/12/21 01:06:08;;;;;;;20.63;6.43;;;;;;;10.55;53.95;101495.69;4823390;29;20061;-89
2021/12/21 01:08:45;;;;;;;16.23;3.78;;;;;;;10.57;53.98;101494.69;4837181;29;20083;-88
2021/12/21 01:11:19;;;;;;;22.40;3.47;;;;;;;10.48;54.00;101501.22;4823126;29;20083;-88
2021/12/21 01:14:06;;;;;;;20.80;2.97;;;;;;;10.64;53.65;101496.09;4823418;29;20496;-89
2021/12/21 01:19:24;;;;;;;19.63;4.18;;;;;;;10.31;54.36;101488.13;4845080;29;20390;-89
2021/12/21 01:34:46;;;;;;;15.05;3.53;;;;;;;10.70;53.70;101501.03;4844592;29;20037;-89
2021/12/21 01:37:28;;;;;;;23.35;3.72;;;;;;;10.66;53.67;101502.09;4844472;29;20022;-89
2021/12/21 01:40:02;;;;;;;26.27;4.80;;;;;;;10.61;54.22;101501.47;4842776;29;20046;-89
2021/12/21 01:42:45;;;;;;;19.58;3.88;;;;;;;10.61;53.46;101498.00;4833682;29;20442;-89
2021/12/21 01:50:39;;;;;;;19.63;4.00;;;;;;;10.61;53.77;101480.47;4825821;29;20064;-88
2021/12/21 01:53:04;;;;;;;23.33;4.13;;;;;;;10.58;54.12;101488.50;4825508;29;20027;-89
2021/12/21 01:55:30;;;;;;;22.67;4.68;;;;;;;10.56;54.01;101484.25;4835715;29;20038;-88
2021/12/21 01:57:56;;;;;;;17.55;3.30;;;;;;;10.57;53.70;101468.41;4843810;29;20124;-88
2021/12/21 02:00:21;;;;;;;16.17;3.97;;;;;;;10.47;54.02;101472.44;4844308;29;20038;-88
2021/12/21 02:02:47;;;;;;;20.23;3.88;;;;;;;10.38;54.35;101467.66;4844247;29;20366;-88
2021/12/21 02:05:12;;;;;;;20.92;3.53;;;;;;;10.51;54.04;101468.75;4844070;29;20499;-88
2021/12/21 02:07:39;;;;;;;20.73;3.63;;;;;;;10.45;53.90;101466.44;4844175;29;20477;-88
2021/12/21 02:10:05;;;;;;;21.08;2.70;;;;;;;10.12;54.69;101467.13;4835864;29;20106;-89
2021/12/21 02:12:31;;;;;;;18.23;3.38;;;;;;;10.10;54.89;101469.81;4825757;29;20118;-88
2021/12/21 02:14:58;;;;;;;24.10;4.07;;;;;;;10.30;54.60;101460.16;4826516;29;20392;-88
2021/12/21 02:20:23;;;;;;;20.10;4.50;;;;;;;10.24;54.70;101460.44;4825923;29;20496;-88
2021/12/21 02:22:57;;;;;;;17.27;5.35;;;;;;;10.28;54.94;101460.19;4825303;29;20030;-88
2021/12/21 02:28:12;;;;;;;16.02;3.53;;;;;;;10.37;54.47;101450.19;4825477;29;20392;-89
2021/12/21 02:30:41;;;;;;;22.15;3.75;;;;;;;10.38;54.10;101454.53;4841946;29;20034;-88
2021/12/21 02:33:07;;;;;;;11.88;2.85;;;;;;;10.26;54.46;101450.69;4843336;29;20066;-88
2021/12/21 02:35:33;;;;;;;11.95;2.67;;;;;;;10.30;54.76;101444.41;4842166;29;20121;-88
2021/12/21 02:37:58;;;;;;;18.63;4.13;;;;;;;10.03;55.21;101441.34;4843559;29;20042;-89
2021/12/21 02:40:24;;;;;;;14.10;3.38;;;;;;;10.19;54.64;101450.16;4843324;29;20053;-88
2021/12/21 02:42:49;;;;;;;15.73;3.83;;;;;;;9.93;55.41;101451.44;4843269;29;20037;-89
2021/12/21 02:45:14;;;;;;;18.25;4.05;;;;;;;9.95;55.21;101443.50;4826236;29;20042;-88
2021/12/21 02:47:40;;;;;;;14.85;3.17;;;;;;;9.96;55.17;101442.56;4825200;29;20035;-88
2021/12/21 02:50:07;;;;;;;12.65;3.42;;;;;;;10.28;54.56;101444.44;4824960;29;20034;-88
2021/12/21 02:52:33;;;;;;;15.77;3.08;;;;;;;10.36;54.19;101440.63;4824590;29;20496;-87
2021/12/21 02:55:01;;;;;;;17.42;3.00;;;;;;;10.52;53.91;101444.16;4824872;29;20063;-89
2021/12/21 02:57:26;;;;;;;16.55;4.40;;;;;;;10.46;53.87;101444.47;4824775;29;20558;-88
2021/12/21 02:59:52;;;;;;;16.58;3.33;;;;;;;10.37;53.89;101439.69;4837602;29;20128;-88
2021/12/21 03:02:17;;;;;;;14.48;3.40;;;;;;;10.06;54.73;101441.19;4825308;29;20394;-88
2021/12/21 03:04:44;;;;;;;17.83;3.40;;;;;;;10.37;54.00;101440.56;4824581;29;20049;-88
2021/12/21 03:09:54;;;;;;;20.20;3.58;;;;;;;10.29;53.96;101440.91;4824974;29;20578;-88
2021/12/21 03:14:49;;;;;;;13.38;3.03;;;;;;;10.12;54.37;101441.72;4839412;29;20085;-88
2021/12/21 03:17:14;;;;;;;22.60;3.50;;;;;;;10.11;54.33;101445.31;4826048;29;20673;-88
2021/12/21 03:19:41;;;;;;;24.40;5.13;;;;;;;9.96;55.08;101446.03;4825751;29;20302;-88
2021/12/21 03:22:08;;;;;;;15.57;3.10;;;;;;;9.86;55.19;101439.56;4825395;29;20038;-88
2021/12/21 03:24:34;;;;;;;16.95;3.97;;;;;;;9.98;54.79;101435.47;4824540;29;20136;-88
2021/12/21 03:27:00;;;;;;;18.88;3.85;;;;;;;9.71;55.52;101441.13;4824547;29;20063;-88
2021/12/21 03:29:26;;;;;;;17.42;3.83;;;;;;;9.70;55.53;101435.03;4824457;29;20130;-88
2021/12/21 03:31:52;;;;;;;22.27;4.05;;;;;;;9.61;56.28;101434.63;4824310;29;20037;-88
2021/12/21 03:34:18;;;;;;;13.50;3.50;;;;;;;9.74;55.85;101430.50;4824860;29;20035;-88
2021/12/21 03:36:43;;;;;;;18.30;4.25;;;;;;;9.70;55.76;101424.53;4841000;29;20030;-88
2021/12/21 03:39:16;;;;;;;21.90;3.72;;;;;;;9.97;55.42;101426.75;4842213;29;20030;-88
2021/12/21 03:41:45;;;;;;;12.85;3.38;;;;;;;9.90;54.65;101423.56;4842200;29;20029;-86
2021/12/21 03:44:11;;;;;;;15.25;3.28;;;;;;;9.68;55.40;101420.31;4841747;29;20029;-88
2021/12/21 03:46:44;;;;;;;19.75;3.97;;;;;;;9.79;55.22;101425.88;4842471;29;20022;-89
2021/12/21 03:49:40;;;;;;;16.92;3.40;;;;;;;9.81;55.27;101426.63;4842479;29;20034;-88
2021/12/21 03:51:56;;;;;;;10.35;3.08;;;;;;;9.66;55.95;101422.16;4840029;29;20072;-88
2021/12/21 03:54:22;;;;;;;18.40;4.85;;;;;;;9.64;55.79;101426.63;4842084;29;20469;-89
2021/12/21 03:56:50;;;;;;;20.33;4.68;;;;;;;9.66;56.06;101433.50;4842000;29;20352;-88
2021/12/21 03:59:16;;;;;;;14.75;4.00;;;;;;;9.79;55.58;101428.50;4842125;29;20451;-88
2021/12/21 04:01:41;;;;;;;25.05;4.18;;;;;;;9.65;55.86;101425.69;4842148;29;20476;-88
2021/12/21 04:04:08;;;;;;;19.60;4.90;;;;;;;9.79;55.39;101420.63;4840643;29;20038;-88
2021/12/21 04:06:34;;;;;;;15.50;4.13;;;;;;;9.88;55.19;101427.22;4841899;29;20034;-88
2021/12/21 04:09:00;;;;;;;18.40;5.05;;;;;;;10.05;54.81;101421.13;4841916;29;20065;-88
2021/12/21 04:11:25;;;;;;;18.98;3.97;;;;;;;10.16;54.53;101421.44;4841967;29;20026;-88
2021/12/21 04:13:51;;;;;;;21.00;4.18;;;;;;;10.19;54.52;101423.94;4841897;29;20026;-88
2021/12/21 04:16:16;;;;;;;23.55;4.15;;;;;;;10.10;54.67;101429.63;4842061;29;20106;-88
2021/12/21 04:18:42;;;;;;;22.48;4.35;;;;;;;9.93;54.68;101426.06;4841794;29;20026;-88
2021/12/21 04:21:11;;;;;;;18.33;4.05;;;;;;;9.83;55.27;101429.19;4823723;29;20026;-88
2021/12/21 04:23:38;;;;;;;17.05;4.57;;;;;;;10.12;54.22;101425.16;4823685;29;20027;-89
2021/12/21 04:26:04;;;;;;;16.73;4.15;;;;;;;9.96;54.83;101432.09;4823460;29;20393;-88
2021/12/21 04:28:29;;;;;;;12.60;3.90;;;;;;;10.02;54.46;101426.53;4823134;29;20022;-89
2021/12/21 04:30:54;;;;;;;16.40;3.78;;;;;;;9.88;54.75;101424.59;4837645;29;20489;-88
2021/12/21 04:33:20;;;;;;;23.52;4.78;;;;;;;9.80;55.16;101430.19;4823651;29;20037;-88
2021/12/21 04:35:45;;;;;;;14.85;5.65;;;;;;;9.57;55.67;101417.34;4824963;29;20504;-88
2021/12/21 04:38:23;;;;;;;21.13;4.50;;;;;;;9.66;55.47;101417.75;4822474;29;20268;-89
2021/12/21 04:40:59;;;;;;;34.22;6.22;;;;;;;9.62;56.02;101420.59;4824178;29;20182;-88
2021/12/21 04:43:25;;;;;;;15.30;3.88;;;;;;;9.77;55.10;101414.59;4823686;29;20034;-88
2021/12/21 04:45:50;;;;;;;17.00;4.82;;;;;;;9.67;55.55;101408.09;4819073;29;20389;-88
2021/12/21 04:48:16;;;;;;;18.20;4.20;;;;;;;9.67;55.28;101410.72;4827139;29;20038;-89
2021/12/21 04:50:42;;;;;;;15.73;4.22;;;;;;;9.72;55.57;101411.38;4823521;29;20031;-89
2021/12/21 04:53:08;;;;;;;16.65;3.88;;;;;;;9.46;55.39;101418.69;4836615;29;20038;-88
2021/12/21 04:55:33;;;;;;;12.85;4.10;;;;;;;9.41;56.08;101411.97;4845051;29;20366;-89
2021/12/21 04:57:59;;;;;;;15.63;3.88;;;;;;;9.41;56.03;101404.94;4844881;29;20105;-88
2021/12/21 05:00:25;;;;;;;26.23;4.50;;;;;;;9.57;55.54;101412.09;4845448;29;20364;-88
2021/12/21 05:02:51;;;;;;;16.95;4.75;;;;;;;9.50;56.03;101412.38;4830936;29;20030;-89
2021/12/21 05:05:16;;;;;;;12.00;4.00;;;;;;;9.72;55.24;101409.59;4826247;29;20518;-88
2021/12/21 05:07:46;;;;;;;12.02;3.53;;;;;;;9.48;55.93;101414.22;4826565;29;20050;-89
2021/12/21 05:10:12;;;;;;;20.77;4.57;;;;;;;9.39;56.43;101409.41;4826996;29;20027;-88
2021/12/21 05:12:38;;;;;;;18.52;3.90;;;;;;;9.30;56.14;101399.34;4826372;29;20172;-88
2021/12/21 05:15:05;;;;;;;13.52;4.20;;;;;;;9.42;55.60;101404.03;4826230;29;21029;-88
2021/12/21 05:17:31;;;;;;;22.83;4.18;;;;;;;9.40;56.19;101402.41;4832977;29;20039;-88
2021/12/21 05:19:56;;;;;;;18.02;4.15;;;;;;;9.42;56.18;101396.19;4835801;29;20037;-88
2021/12/21 05:22:23;;;;;;;19.17;4.32;;;;;;;9.36;55.82;101399.09;4835861;29;20122;-89
2021/12/21 05:24:48;;;;;;;11.98;3.55;;;;;;;9.18;56.11;101395.53;4826205;29;20362;-88
2021/12/21 05:27:14;;;;;;;17.40;4.05;;;;;;;9.22;56.36;101402.34;4826395;29;20083;-88
2021/12/21 05:29:40;;;;;;;12.38;3.53;;;;;;;9.06;56.76;101394.34;4826149;29;20033;-88
2021/12/21 05:32:06;;;;;;;19.27;3.85;;;;;;;9.41;56.01;101396.25;4827279;29;20049;-88
2021/12/21 05:34:32;;;;;;;12.55;3.42;;;;;;;9.49;55.53;101394.94;4826266;29;20450;-88
2021/12/21 05:36:58;;;;;;;13.20;3.35;;;;;;;9.60;55.41;101402.31;4826108;29;20106;-89
2021/12/21 05:39:27;;;;;;;13.85;3.30;;;;;;;9.42;55.61;101401.41;4826045;29;20071;-88
2021/12/21 05:41:56;;;;;;;14.95;3.17;;;;;;;9.63;54.93;101398.69;4825550;29;20042;-88
2021/12/21 05:44:26;;;;;;;16.95;4.13;;;;;;;9.43;55.51;101397.03;4826083;29;20026;-88
2021/12/21 05:46:53;;;;;;;14.15;3.67;;;;;;;9.42;55.64;101392.69;4826710;29;20439;-88
2021/12/21 05:49:19;;;;;;;17.40;3.50;;;;;;;9.43;55.46;101403.09;4842511;29;20065;-88
2021/12/21 05:51:46;;;;;;;15.35;3.88;;;;;;;9.36;55.26;101399.09;4844279;29;20541;-88
2021/12/21 05:54:12;;;;;;;15.68;3.80;;;;;;;9.33;55.76;101399.22;4843060;29;20026;-89
2021/12/21 05:56:38;;;;;;;15.88;3.35;;;;;;;9.38;55.47;101407.72;4844118;29;20038;-88
2021/12/21 05:59:04;;;;;;;12.25;4.28;;;;;;;9.42;55.56;101406.66;4844101;29;20034;-88
2021/12/21 06:01:31;;;;;;;18.00;3.72;;;;;;;9.20;55.93;101391.09;4844154;29;20030;-88
2021/12/21 06:03:56;;;;;;;11.43;3.10;;;;;;;9.54;55.49;101397.38;4842305;29;20037;-87
2021/12/21 06:06:22;;;;;;;17.17;3.53;;;;;;;9.61;55.18;101396.13;4843256;29;20041;-88
2021/12/21 06:08:49;;;;;;;13.02;4.70;;;;;;;9.38;55.70;101386.75;4844084;29;20096;-88
2021/12/21 06:11:15;;;;;;;11.48;3.10;;;;;;;9.41;55.52;101386.59;4842733;29;20026;-88
2021/12/21 06:27:11;;;;;;;14.35;4.13;;;;;;;9.35;56.06;101384.28;4826109;29;20062;-88
2021/12/21 06:29:36;;;;;;;15.20;4.18;;;;;;;9.18;55.64;101392.06;4827947;29;20446;-88
2021/12/21 06:32:03;;;;;;;10.45;3.90;;;;;;;9.21;56.03;101389.31;4827371;29;20035;-89
2021/12/21 06:34:28;;;;;;;15.40;4.25;;;;;;;9.32;55.58;101382.66;4832154;29;20551;-89
2021/12/21 06:36:54;;;;;;;16.83;4.57;;;;;;;9.28;55.56;101388.09;4825035;29;20034;-88
2021/12/21 06:39:19;;;;;;;18.50;3.75;;;;;;;9.24;56.09;101381.28;4828345;29;20040;-88
2021/12/21 06:41:45;;;;;;;16.63;4.18;;;;;;;9.31;55.84;101380.09;4843149;29;20036;-89
2021/12/21 06:44:13;;;;;;;13.90;3.90;;;;;;;9.28;55.70;101380.22;4842636;29;20113;-89
2021/12/21 06:52:10;;;;;;;14.98;4.32;;;;;;;9.08;56.51;101392.50;4842818;29;20083;-88
2021/12/21 06:54:35;;;;;;;19.63;4.13;;;;;;;9.02;56.78;101384.91;4842855;29;20392;-93
2021/12/21 06:57:01;;;;;;;18.20;5.30;;;;;;;9.37;55.85;101390.28;4842933;29;20025;-87
2021/12/21 06:59:26;;;;;;;14.60;4.50;;;;;;;8.79;57.20;101393.81;4842010;29;20029;-89
2021/12/21 07:01:52;;;;;;;14.55;4.68;;;;;;;9.05;56.70;101395.25;4840012;29;20044;-85
2021/12/21 07:04:18;;;;;;;11.07;4.47;;;;;;;9.28;56.42;101395.94;4824396;29;20030;-88
2021/12/21 07:06:45;;;;;;;15.95;5.07;;;;;;;9.15;56.67;101402.72;4824324;29;20510;-87
2021/12/21 07:09:20;;;;;;;18.60;4.75;;;;;;;9.11;57.02;101402.00;4826256;29;20477;-87
2021/12/21 07:11:53;;;;;;;14.57;5.40;;;;;;;9.25;56.11;101391.72;4842320;29;20504;-88
2021/12/21 07:19:47;;;;;;;18.42;4.90;;;;;;;9.18;56.18;101395.53;4831073;29;20086;-88
2021/12/21 07:22:12;;;;;;;13.40;4.85;;;;;;;9.11;56.99;101392.34;4842790;29;20029;-88
2021/12/21 07:24:38;;;;;;;17.10;6.05;;;;;;;8.91;57.25;101384.56;4842205;29;20481;-87
2021/12/21 07:27:04;;;;;;;17.77;6.07;;;;;;;9.30;56.19;101388.88;4841301;29;20036;-88
2021/12/21 07:29:30;;;;;;;13.90;4.93;;;;;;;8.91;56.93;101381.94;4841909;29;20025;-88
2021/12/21 07:31:55;;;;;;;17.50;6.70;;;;;;;8.61;57.21;101374.56;4842027;29;20038;-87
2021/12/21 07:34:21;;;;;;;21.23;6.60;;;;;;;8.82;57.12;101382.34;4842843;29;20408;-86
2021/12/21 07:36:47;;;;;;;22.75;8.57;;;;;;;8.65;57.40;101377.84;4840909;29;20500;-88
2021/12/21 07:39:17;;;;;;;22.38;6.68;;;;;;;8.61;57.71;101377.16;4842290;29;20097;-88
2021/12/21 07:41:43;;;;;;;15.18;6.22;;;;;;;8.87;56.79;101386.47;4843151;29;20025;-89
2021/12/21 07:44:09;;;;;;;17.92;5.95;;;;;;;9.12;56.03;101387.97;4842279;29;20094;-89
2021/12/21 07:46:35;;;;;;;16.90;6.57;;;;;;;8.93;56.99;101385.34;4837210;29;20397;-88
2021/12/21 07:49:01;;;;;;;19.58;7.10;;;;;;;8.85;57.09;101387.47;4823855;29;20034;-89
2021/12/21 07:51:27;;;;;;;22.38;7.15;;;;;;;8.68;57.58;101389.06;4823982;29;20063;-89
2021/12/21 07:53:53;;;;;;;20.00;6.72;;;;;;;8.86;57.08;101389.16;4823016;29;20033;-89
2021/12/21 07:56:18;;;;;;;19.45;6.80;;;;;;;8.90;56.71;101390.72;4824850;29;20493;-89
2021/12/21 07:58:45;;;;;;;17.80;7.47;;;;;;;8.94;56.42;101392.28;4823278;29;20047;-89
2021/12/21 08:01:11;;;;;;;20.50;7.57;;;;;;;8.92;56.73;101389.72;4840100;29;20090;-87
2021/12/21 08:03:38;;;;;;;21.83;7.88;;;;;;;8.89;56.94;101395.09;4820318;29;20034;-88
2021/12/21 08:06:07;;;;;;;16.67;6.70;;;;;;;9.05;56.01;101395.25;4823212;29;20045;-87
2021/12/21 08:08:35;;;;;;;15.75;6.30;;;;;;;9.51;55.10;101402.75;4824001;29;20022;-89
2021/12/21 08:11:28;;;;;;;21.27;6.45;;;;;;;9.39;54.96;101398.94;4839511;29;20030;-89
2021/12/21 08:13:54;;;;;;;16.48;6.82;;;;;;;9.31;55.10;101398.44;4841562;29;20384;-89
2021/12/21 08:16:20;;;;;;;20.83;6.70;;;;;;;8.61;56.29;101408.59;4842223;29;20117;-89
2021/12/21 08:18:45;;;;;;;17.63;6.15;;;;;;;8.87;55.86;101396.94;4839009;29;20037;-88
2021/12/21 08:21:15;;;;;;;21.33;6.35;;;;;;;9.11;55.17;101402.00;4839352;29;20351;-89
2021/12/21 08:23:41;;;;;;;15.63;5.60;;;;;;;8.82;55.87;101403.31;4823514;29;20030;-89
2021/12/21 08:26:11;;;;;;;15.00;5.57;;;;;;;8.82;55.23;101395.44;4823698;29;20033;-89
2021/12/21 08:28:37;;;;;;;19.85;6.60;;;;;;;8.97;55.61;101405.25;4839072;29;20042;-90
2021/12/21 08:31:03;;;;;;;17.17;6.85;;;;;;;9.24;55.21;101408.38;4844841;29;20121;-89
2021/12/21 08:33:28;;;;;;;23.67;6.18;;;;;;;9.30;54.81;101401.97;4829495;29;20034;-89
2021/12/21 08:35:54;;;;;;;20.88;8.05;;;;;;;9.13;55.37;101408.84;4827610;29;20034;-90
2021/12/21 08:38:20;;;;;;;18.05;7.03;;;;;;;8.94;55.58;101408.00;4827100;29;20533;-89
2021/12/21 08:40:49;;;;;;;10.65;6.28;;;;;;;9.31;54.92;101403.69;4841553;29;20362;-89
2021/12/21 08:43:28;;;;;;;19.50;7.53;;;;;;;9.60;54.21;101406.72;4845175;29;20022;-88
2021/12/21 08:45:55;;;;;;;23.38;6.55;;;;;;;9.36;54.26;101420.06;4845555;29;20030;-90
2021/12/21 08:48:21;;;;;;;15.77;6.60;;;;;;;9.21;55.07;101415.53;4844619;29;20026;-90
2021/12/21 08:50:49;;;;;;;18.55;6.78;;;;;;;9.40;54.46;101413.75;4845178;29;20500;-89
2021/12/21 08:53:15;;;;;;;19.95;5.88;;;;;;;9.46;53.93;101418.69;4845639;29;20022;-90
2021/12/21 08:55:42;;;;;;;18.33;6.20;;;;;;;9.71;53.76;101425.38;4845361;29;20030;-90
2021/12/21 08:58:09;;;;;;;18.92;6.15;;;;;;;9.42;54.25;101429.38;4844996;29;20066;-90
2021/12/21 09:00:37;;;;;;;16.40;6.07;;;;;;;9.55;54.04;101425.28;4844834;29;20061;-89
2021/12/21 09:03:03;;;;;;;21.33;6.30;;;;;;;9.67;53.98;101426.47;4858770;29;20081;-89
2021/12/21 09:05:31;;;;;;;14.93;6.35;;;;;;;9.61;54.35;101437.25;4846066;29;20034;-89
2021/12/21 09:07:58;;;;;;;10.52;5.82;;;;;;;9.90;53.77;101439.31;4845057;29;20062;-88
2021/12/21 09:10:24;;;;;;;16.73;5.68;;;;;;;9.48;54.09;101439.59;4845447;29;20477;-87
2021/12/21 09:12:50;;;;;;;10.80;4.70;;;;;;;9.65;53.01;101425.69;4845272;29;20042;-88
2021/12/21 09:15:17;;;;;;;13.50;4.72;;;;;;;9.75;52.81;101431.34;4844903;29;20077;-88
2021/12/21 09:17:44;;;;;;;19.90;5.55;;;;;;;9.84;52.51;101431.75;4842874;29;20044;-88
2021/12/21 09:20:15;;;;;;;19.45;6.03;;;;;;;9.69;53.38;101430.69;4843654;29;20044;-88
2021/12/21 09:22:41;;;;;;;19.42;5.65;;;;;;;9.99;52.63;101437.16;4843994;29;20030;-88
2021/12/21 09:25:08;;;;;;;16.02;5.72;;;;;;;10.07;52.55;101438.50;4843911;29;20026;-89
2021/12/21 09:27:34;;;;;;;14.38;5.90;;;;;;;9.82;52.67;101436.22;4844803;29;20033;-88
2021/12/21 09:29:59;;;;;;;17.48;6.13;;;;;;;9.95;52.66;101443.50;4843883;29;20371;-88
2021/12/21 09:32:25;;;;;;;14.55;5.57;;;;;;;9.87;52.55;101454.34;4833952;29;20062;-89
2021/12/21 09:34:51;;;;;;;18.10;6.63;;;;;;;10.16;51.85;101447.69;4826775;29;20031;-89
2021/12/21 09:37:20;;;;;;;14.38;5.78;;;;;;;9.69;52.81;101448.22;4826268;29;20034;-89
2021/12/21 09:39:49;;;;;;;10.63;5.05;;;;;;;9.96;52.69;101438.19;4832839;29;20034;-88
2021/12/21 09:42:22;;;;;;;16.02;5.18;;;;;;;9.79;52.33;101444.22;4844812;29;20029;-88
2021/12/21 09:44:49;;;;;;;15.02;5.50;;;;;;;10.04;52.15;101440.44;4842635;29;20034;-89
2021/12/21 09:47:15;;;;;;;13.02;4.68;;;;;;;9.91;51.70;101443.66;4843628;29;20041;-89
2021/12/21 09:49:43;;;;;;;11.93;5.40;;;;;;;9.63;52.58;101446.72;4844365;29;20033;-89
2021/12/21 09:52:10;;;;;;;16.65;5.63;;;;;;;9.89;52.31;101453.38;4844196;29;20091;-89
2021/12/21 09:54:38;;;;;;;16.90;4.93;;;;;;;10.18;51.97;101451.09;4844450;29;20061;-89
2021/12/21 09:57:05;;;;;;;16.75;4.50;;;;;;;9.87;52.34;101449.97;4835977;29;20045;-89
2021/12/21 09:59:30;;;;;;;14.95;4.90;;;;;;;10.03;51.75;101446.59;4831458;29;20125;-89
2021/12/21 10:01:57;;;;;;;11.90;5.10;;;;;;;10.17;51.59;101457.28;4843902;29;20033;-88
2021/12/21 10:04:25;;;;;;;10.70;4.15;;;;;;;10.31;51.34;101452.22;4844019;29;20026;-88
2021/12/21 10:06:54;;;;;;;15.82;5.22;;;;;;;10.21;51.76;101457.94;4842656;29;20052;-88
2021/12/21 10:09:23;;;;;;;13.80;5.38;;;;;;;10.04;51.90;101450.91;4835040;29;20362;-89
2021/12/21 10:11:49;;;;;;;17.20;5.47;;;;;;;10.08;52.32;101466.44;4842352;29;20026;-88
2021/12/21 10:14:18;;;;;;;11.55;4.65;;;;;;;10.31;51.38;101467.97;4836263;29;20054;-87
2021/12/21 10:16:46;;;;;;;15.50;4.75;;;;;;;10.12;51.47;101467.13;4843709;29;20085;-89
2021/12/21 10:19:22;;;;;;;15.88;5.38;;;;;;;10.36;51.78;101464.25;4836816;29;20072;-89
2021/12/21 10:21:48;;;;;;;16.02;5.00;;;;;;;10.05;52.35;101471.84;4825187;29;20425;-88
2021/12/21 10:24:27;;;;;;;22.95;4.93;;;;;;;9.69;52.22;101472.66;4825051;29;20064;-88
2021/12/21 10:27:05;;;;;;;11.98;4.45;;;;;;;9.84;52.00;101470.25;4824710;29;20497;-89
2021/12/21 10:29:43;;;;;;;15.57;4.57;;;;;;;10.07;51.29;101469.13;4821406;29;20034;-88
2021/12/21 10:32:26;;;;;;;13.73;4.60;;;;;;;10.44;50.67;101475.22;4830874;29;20090;-87
2021/12/21 10:34:55;;;;;;;9.02;4.10;;;;;;;10.48;50.84;101477.59;4832347;29;20206;-89
2021/12/21 10:37:27;;;;;;;16.60;5.35;;;;;;;10.46;51.10;101470.72;4829863;29;20152;-88
2021/12/21 10:40:27;;;;;;;23.33;4.97;;;;;;;10.56;50.70;101466.72;4826888;29;20034;-87
2021/12/21 10:42:54;;;;;;;17.55;5.07;;;;;;;10.08;52.14;101471.69;4838261;29;20057;-94
2021/12/21 10:45:26;;;;;;;10.52;4.70;;;;;;;9.98;52.56;101465.19;4841285;29;20509;-93
2021/12/21 10:47:51;;;;;;;14.48;5.50;;;;;;;9.89;52.24;101455.13;4838221;29;20061;-92
2021/12/21 10:50:17;;;;;;;12.63;4.15;;;;;;;9.96;52.04;101455.69;4840641;29;20481;-94
2021/12/21 10:52:49;;;;;;;478.80;124.43;;;;;;;10.13;52.25;101450.47;4830721;29;20392;-93
2021/12/21 10:55:14;;;;;;;502.50;128.30;;;;;;;9.98;52.46;101448.59;4828020;29;20114;-91
2021/12/21 10:57:40;;;;;;;529.70;130.85;;;;;;;10.31;51.63;101446.97;4838270;29;20147;-91
2021/12/21 11:00:14;;;;;;;9.68;4.35;;;;;;;10.46;51.60;101442.69;4830305;29;20062;-91
2021/12/21 11:02:41;;;;;;;15.65;4.25;;;;;;;10.59;50.60;101442.09;4834649;29;20405;-88
2021/12/21 11:05:19;;;;;;;11.13;4.68;;;;;;;10.56;50.76;101450.94;4837485;29;20033;-90
2021/12/21 11:10:25;;;;;;;;;;;;;;;10.61;51.10;101454.19;4826239;29;20094;-94
2021/12/21 11:12:55;;;;;;;17.17;5.38;;;;;;;10.63;51.17;101447.09;4826418;29;19921;-91
2021/12/21 11:15:28;;;;;;;12.07;4.18;;;;;;;10.55;51.01;101449.28;4842134;29;20105;-93
2021/12/21 11:17:55;;;;;;;13.88;5.60;;;;;;;10.57;50.61;101439.53;4830633;29;20046;-91
2021/12/21 11:20:20;;;;;;;23.23;5.70;;;;;;;10.26;51.92;101433.16;4827921;29;20121;-93
2021/12/21 11:22:46;;;;;;;12.35;4.93;;;;;;;10.74;51.19;101438.66;4835343;29;20481;-92
2021/12/21 11:25:13;;;;;;;11.07;5.38;;;;;;;10.71;50.67;101434.41;4854317;29;20476;-93
2021/12/21 11:27:41;;;;;;;13.38;5.72;;;;;;;10.45;50.56;101432.28;4829226;29;20040;-96
2021/12/21 11:30:14;;;;;;;9.57;4.40;;;;;;;10.48;51.05;101427.72;4830198;29;20388;-95
2021/12/21 11:32:48;;;;;;;12.27;4.93;;;;;;;10.23;51.29;101437.72;4834913;29;20038;-95
2021/12/21 11:37:50;;;;;;;14.27;4.88;;;;;;;10.15;51.87;101435.50;4843264;29;20507;-94
2021/12/21 11:40:23;;;;;;;10.20;5.13;;;;;;;10.31;51.19;101415.47;4849268;29;20037;-96
2021/12/21 11:42:51;;;;;;;9.90;4.57;;;;;;;10.73;50.50;101415.09;4855004;29;20030;-95
2021/12/21 11:45:29;;;;;;;12.45;5.00;;;;;;;10.70;50.20;101406.47;4837229;29;20038;-95
2021/12/21 11:48:15;;;;;;;9.40;4.13;;;;;;;10.71;50.16;101405.50;4824786;29;20375;-94
2021/12/21 11:50:44;;;;;;;10.70;4.80;;;;;;;10.79;50.05;101399.84;4825006;29;20034;-94
2021/12/21 11:53:17;;;;;;;7.78;4.63;;;;;;;10.56;51.14;101408.09;4847937;29;20545;-96
2021/12/21 11:55:45;;;;;;;14.82;5.45;;;;;;;10.67;50.66;101401.34;4831203;29;20034;-96
2021/12/21 11:58:23;;;;;;;10.98;4.63;;;;;;;10.97;50.42;101397.19;4816159;29;20038;-96
2021/12/21 12:01:05;;;;;;;13.30;5.15;;;;;;;10.49;50.86;101402.31;4840528;29;20061;-95
2021/12/21 12:03:33;;;;;;;18.17;6.50;;;;;;;10.07;51.63;101387.78;4833540;29;20045;-93
2021/12/21 12:06:07;;;;;;;13.45;5.55;;;;;;;10.69;50.26;101389.00;4841756;29;20392;-92
2021/12/21 12:09:04;;;;;;;10.40;5.80;;;;;;;10.43;50.01;101390.34;4829291;29;20042;-95
2021/12/21 12:11:35;;;;;;;10.93;5.53;;;;;;;10.86;48.97;101385.47;4830385;29;20125;-94
2021/12/21 12:14:12;;;;;;;11.47;5.07;;;;;;;11.02;49.08;101385.50;4829483;29;20087;-95
2021/12/21 12:16:49;;;;;;;21.73;8.07;;;;;;;10.75;49.45;101371.22;4824878;29;20365;-94
2021/12/21 12:19:17;;;;;;;12.52;5.57;;;;;;;10.73;49.26;101371.28;4824739;29;20581;-94
2021/12/21 12:21:57;;;;;;;11.95;6.05;;;;;;;10.97;48.88;101373.53;4832531;29;20067;-96
2021/12/21 12:24:26;;;;;;;;;;;;;;;11.09;49.29;101367.59;4849744;29;20116;-96
2021/12/21 12:26:57;;;;;;;16.63;6.00;;;;;;;11.06;49.08;101373.88;4842522;29;19935;-93
2021/12/21 12:29:23;;;;;;;11.02;5.68;;;;;;;11.11;48.50;101365.75;4840704;29;20053;-94
2021/12/21 12:32:05;;;;;;;17.40;6.75;;;;;;;10.75;49.32;101360.72;4834815;29;20034;-91
2021/12/21 12:34:32;;;;;;;18.42;6.57;;;;;;;10.85;49.07;101361.91;4823425;29;20042;-94
2021/12/21 12:37:00;;;;;;;15.20;6.10;;;;;;;10.99;48.73;101354.13;4829585;29;20091;-93
2021/12/21 12:39:35;;;;;;;9.82;5.65;;;;;;;11.07;48.91;101338.78;4825168;29;20022;-94